Time;durP1;ratioP1;P1;durP2;ratioP2;P2;SDS_P1;SDS_P2;PMS_P1;PMS_P2;Temp;Humidity;BMP_temperature;BMP_pressure;BME280_temperature;BME280_humidity;BME280_pressure;Samples;Min_cycle;Max_cycle;Signal;HPM_P1;HPM_P2
2022/06/07 00:01:33;;;;;;;1.50;1.40;;;;;;;22.37;50.87;93320.19;5008876;28;20072;-89
2022/06/07 00:03:59;;;;;;;1.88;1.77;;;;;;;22.37;50.99;93325.69;5009559;28;20515;-89
2022/06/07 00:06:24;;;;;;;2.25;1.85;;;;;;;22.34;50.96;93318.50;4992317;28;20029;-89
2022/06/07 00:08:51;;;;;;;1.90;1.40;;;;;;;22.36;50.90;93309.69;4993439;28;20527;-89
2022/06/07 00:11:16;;;;;;;1.67;1.42;;;;;;;22.35;50.94;93317.22;5009079;28;20049;-88
2022/06/07 00:13:42;;;;;;;1.25;1.13;;;;;;;22.35;50.95;93313.72;4993311;28;20041;-89
2022/06/07 00:16:07;;;;;;;1.50;1.40;;;;;;;22.36;50.78;93304.19;4974899;28;20038;-89
2022/06/07 00:18:33;;;;;;;1.30;1.20;;;;;;;22.34;50.82;93301.97;4977017;28;20042;-88
2022/06/07 00:20:59;;;;;;;1.50;1.40;;;;;;;22.35;50.85;93297.22;5025546;28;20049;-88
2022/06/07 00:23:25;;;;;;;2.17;1.48;;;;;;;22.33;50.71;93300.50;5008901;28;20466;-90
2022/06/07 00:25:51;;;;;;;1.35;1.25;;;;;;;22.34;51.11;93299.22;4992457;28;20052;-88
2022/06/07 00:28:17;;;;;;;1.63;1.40;;;;;;;22.33;50.89;93299.75;5008789;28;20073;-89
2022/06/07 00:30:42;;;;;;;2.63;1.67;;;;;;;22.34;50.88;93298.47;4992451;28;20103;-89
2022/06/07 00:33:08;;;;;;;1.38;1.27;;;;;;;22.32;50.85;93292.78;5008640;28;20072;-89
2022/06/07 00:35:33;;;;;;;1.38;1.27;;;;;;;22.32;50.98;93292.78;5025572;28;20820;-88
2022/06/07 00:37:59;;;;;;;2.15;1.48;;;;;;;22.34;50.91;93290.22;4992885;28;20033;-89
2022/06/07 00:40:24;;;;;;;1.48;1.38;;;;;;;22.32;50.85;93282.50;5024841;28;20033;-89
2022/06/07 00:42:50;;;;;;;1.75;1.30;;;;;;;22.32;50.92;93290.03;4992690;28;20044;-88
2022/06/07 00:45:17;;;;;;;1.40;1.30;;;;;;;22.31;50.92;93289.28;4992055;28;20373;-90
2022/06/07 00:47:42;;;;;;;1.63;1.40;;;;;;;22.32;50.98;93292.78;5012604;28;20099;-89
2022/06/07 00:50:22;;;;;;;1.30;1.20;;;;;;;22.30;51.00;93289.84;4995974;28;20038;-90
2022/06/07 00:52:47;;;;;;;1.58;1.45;;;;;;;22.30;50.97;93285.06;5012533;28;20561;-88
2022/06/07 00:55:13;;;;;;;1.67;1.58;;;;;;;22.32;51.11;93288.00;5012014;28;20050;-90
2022/06/07 00:57:39;;;;;;;1.30;1.20;;;;;;;22.32;50.88;93290.03;5012576;28;20029;-89
2022/06/07 01:00:08;;;;;;;1.27;1.17;;;;;;;22.30;50.97;93285.06;4995957;28;20350;-90
2022/06/07 01:02:33;;;;;;;1.27;1.17;;;;;;;22.32;50.79;93277.00;5011801;28;20037;-90
2022/06/07 01:04:59;;;;;;;1.30;1.20;;;;;;;22.29;51.12;93269.09;5029090;28;20052;-90
2022/06/07 01:12:53;;;;;;;1.65;1.38;;;;;;;22.28;50.93;93268.34;4995165;28;20056;-89
2022/06/07 01:15:18;;;;;;;1.25;1.08;;;;;;;22.28;50.90;93267.63;4992022;28;20424;-89
2022/06/07 01:17:43;;;;;;;1.95;1.42;;;;;;;22.28;50.76;93268.34;5002497;28;20030;-89
2022/06/07 01:20:10;;;;;;;1.30;1.10;;;;;;;22.29;50.73;93258.06;4974334;28;20041;-89
2022/06/07 01:22:35;;;;;;;1.40;1.30;;;;;;;22.29;50.69;93266.34;4974658;28;20515;-89
2022/06/07 01:25:00;;;;;;;2.00;1.40;;;;;;;22.28;50.86;93264.88;4996398;28;20046;-89
2022/06/07 01:27:26;;;;;;;1.73;1.52;;;;;;;22.28;50.84;93264.88;5012968;28;20106;-89
2022/06/07 01:29:51;;;;;;;1.10;1.00;;;;;;;22.29;50.76;93263.59;4997382;28;20041;-90
2022/06/07 01:32:18;;;;;;;1.58;1.45;;;;;;;22.28;50.89;93271.09;4993329;28;20040;-89
2022/06/07 01:34:44;;;;;;;1.55;1.25;;;;;;;22.27;50.83;93277.91;4978161;28;20666;-90
2022/06/07 01:37:11;;;;;;;1.23;1.10;;;;;;;22.26;50.83;93267.41;4996809;28;20132;-89
2022/06/07 01:42:21;;;;;;;1.30;1.20;;;;;;;22.25;50.93;93263.94;5032247;28;20044;-89
2022/06/07 01:44:49;;;;;;;1.23;1.13;;;;;;;22.25;50.93;93258.41;5013442;28;20041;-89
2022/06/07 01:47:21;;;;;;;1.38;1.20;;;;;;;22.25;50.95;93254.91;5029724;28;20075;-90
2022/06/07 01:49:46;;;;;;;1.58;1.45;;;;;;;22.27;50.73;93253.09;5013540;28;20041;-88
2022/06/07 01:52:13;;;;;;;1.50;1.10;;;;;;;22.24;50.95;93240.41;4989218;28;20042;-89
2022/06/07 01:54:38;;;;;;;1.50;1.20;;;;;;;22.23;51.03;93244.44;4990431;28;20053;-90
2022/06/07 01:57:05;;;;;;;2.33;1.38;;;;;;;22.26;50.82;93248.88;4988983;28;20038;-88
2022/06/07 01:59:31;;;;;;;1.35;1.17;;;;;;;22.26;50.96;93256.41;4976494;28;20042;-89
2022/06/07 02:01:57;;;;;;;1.48;1.30;;;;;;;22.25;50.90;93255.66;4962719;28;20065;-90
2022/06/07 02:04:22;;;;;;;2.35;1.20;;;;;;;22.23;50.88;93249.94;4989827;28;20053;-88
2022/06/07 02:06:49;;;;;;;1.52;1.40;;;;;;;22.24;51.13;93240.41;4989986;28;20054;-88
2022/06/07 02:09:14;;;;;;;1.40;1.20;;;;;;;22.25;50.91;93241.16;4989381;28;20655;-89
2022/06/07 02:11:40;;;;;;;2.28;1.35;;;;;;;22.23;50.98;93228.66;4989519;28;20048;-89
2022/06/07 02:14:05;;;;;;;1.40;1.30;;;;;;;22.25;50.87;93238.41;4972696;28;20041;-88
2022/06/07 02:16:31;;;;;;;1.75;1.40;;;;;;;22.25;50.96;93246.66;5005780;28;20044;-88
2022/06/07 02:18:56;;;;;;;1.13;1.02;;;;;;;22.24;50.83;93243.16;4990060;28;20180;-89
2022/06/07 02:21:22;;;;;;;1.40;1.10;;;;;;;22.23;50.89;93239.69;4988911;28;20076;-90
2022/06/07 02:23:49;;;;;;;1.55;1.20;;;;;;;22.24;50.72;93240.41;5003034;28;20044;-89
2022/06/07 02:26:21;;;;;;;1.75;1.38;;;;;;;22.21;50.66;93247.00;5017061;28;20567;-87
2022/06/07 02:28:52;;;;;;;1.50;1.40;;;;;;;22.21;50.90;93242.22;5010943;28;20045;-89
2022/06/07 02:31:17;;;;;;;;;;;;;;;22.25;50.58;93241.91;5011340;28;20033;-89
2022/06/07 02:33:43;;;;;;;1.30;1.10;;;;;;;22.23;50.86;93244.44;5010843;28;20003;-89
2022/06/07 02:36:08;;;;;;;1.10;1.00;;;;;;;22.23;50.77;93238.94;4993745;28;20364;-88
2022/06/07 02:38:34;;;;;;;1.75;1.40;;;;;;;22.19;50.85;93235.78;5010118;28;20527;-88
2022/06/07 02:41:00;;;;;;;1.95;1.38;;;;;;;22.20;50.92;93232.50;5027118;28;20034;-89
2022/06/07 02:43:25;;;;;;;1.60;1.40;;;;;;;22.20;50.99;93229.00;4993954;28;20082;-89
2022/06/07 02:45:50;;;;;;;2.17;1.30;;;;;;;22.20;50.82;93220.75;5026793;28;20555;-88
2022/06/07 02:48:16;;;;;;;1.40;1.27;;;;;;;22.19;50.85;93228.25;5010231;28;20459;-90
2022/06/07 02:50:41;;;;;;;1.30;1.20;;;;;;;22.20;50.91;93229.75;4993384;28;20033;-90
2022/06/07 02:53:07;;;;;;;1.45;1.35;;;;;;;22.20;50.86;93218.00;4993663;28;20041;-89
2022/06/07 02:55:33;;;;;;;1.40;1.30;;;;;;;22.18;50.94;93226.78;4993513;28;20025;-89
2022/06/07 02:57:59;;;;;;;2.05;1.50;;;;;;;22.20;50.66;93229.75;5025296;28;20124;-88
2022/06/07 03:00:25;;;;;;;1.40;1.27;;;;;;;22.18;50.86;93235.03;4973776;28;20046;-89
2022/06/07 03:02:50;;;;;;;1.58;1.48;;;;;;;22.19;51.06;93238.53;4993471;28;20038;-89
2022/06/07 03:05:16;;;;;;;1.60;1.40;;;;;;;22.21;50.81;93247.00;4993651;28;20076;-88
2022/06/07 03:07:41;;;;;;;1.90;1.60;;;;;;;22.19;50.67;93231.03;5010052;28;20038;-89
2022/06/07 03:10:07;;;;;;;1.10;1.00;;;;;;;22.20;50.88;93237.25;4992434;28;20056;-89
2022/06/07 03:12:33;;;;;;;1.42;1.23;;;;;;;22.18;50.86;93229.53;4990408;28;20054;-88
2022/06/07 03:14:59;;;;;;;1.42;1.30;;;;;;;22.18;50.82;93239.81;4987501;28;20080;-88
2022/06/07 03:17:24;;;;;;;1.65;1.52;;;;;;;22.19;50.97;93241.28;4990883;28;20517;-89
2022/06/07 03:19:50;;;;;;;1.65;1.30;;;;;;;22.21;50.74;93241.50;4990160;28;20517;-88
2022/06/07 03:22:17;;;;;;;1.63;1.40;;;;;;;22.19;50.88;93241.28;4989432;28;20056;-89
2022/06/07 03:24:42;;;;;;;1.45;1.35;;;;;;;22.19;50.85;93244.78;4974055;28;20481;-89
2022/06/07 03:27:07;;;;;;;2.15;1.40;;;;;;;22.17;50.99;93241.09;4962176;28;20045;-88
2022/06/07 03:29:33;;;;;;;2.10;1.40;;;;;;;22.20;50.86;93248.28;4974058;28;20034;-88
2022/06/07 03:31:58;;;;;;;1.48;1.38;;;;;;;22.18;50.68;93239.81;4957755;28;20041;-88
2022/06/07 03:34:24;;;;;;;1.30;1.20;;;;;;;22.18;50.77;93246.06;4957146;28;20079;-88
2022/06/07 03:36:49;;;;;;;1.38;1.13;;;;;;;22.18;50.88;93239.81;4957985;28;20527;-89
2022/06/07 03:39:14;;;;;;;1.52;1.30;;;;;;;22.17;51.17;93239.06;4978681;28;20084;-89
2022/06/07 03:41:40;;;;;;;3.95;1.65;;;;;;;22.20;51.28;93234.50;4958004;28;20049;-90
2022/06/07 03:44:05;;;;;;;2.05;1.70;;;;;;;22.23;50.80;93234.16;4957514;28;20088;-87
2022/06/07 03:46:32;;;;;;;3.65;1.50;;;;;;;22.21;51.08;93242.22;4995315;28;20042;-89
2022/06/07 03:48:58;;;;;;;25.95;23.20;;;;;;;22.20;51.15;93238.00;4994221;28;20080;-88
2022/06/07 03:51:25;;;;;;;3.97;2.05;;;;;;;22.22;50.78;93238.19;5010794;28;20045;-89
2022/06/07 03:53:51;;;;;;;1.70;1.60;;;;;;;22.22;50.79;93237.47;5029002;28;20115;-88
2022/06/07 03:56:16;;;;;;;1.40;1.30;;;;;;;22.26;50.53;93242.63;5012642;28;20438;-89
2022/06/07 03:58:42;;;;;;;1.50;1.40;;;;;;;22.26;50.47;93232.34;5010204;28;20033;-87
2022/06/07 04:01:09;;;;;;;1.60;1.50;;;;;;;22.26;50.68;93237.13;5028505;28;20041;-89
2022/06/07 04:03:35;;;;;;;8.55;1.90;;;;;;;22.26;50.84;93242.63;5004079;28;20048;-90
2022/06/07 04:06:00;;;;;;;6.22;1.70;;;;;;;22.20;50.81;93238.00;5024218;28;20038;-89
2022/06/07 04:08:26;;;;;;;5.68;3.20;;;;;;;22.17;50.54;93241.09;5028358;28;20045;-88
2022/06/07 04:10:59;;;;;;;8.60;5.72;;;;;;;22.14;49.83;93242.16;5028990;28;20044;-88
2022/06/07 04:13:26;;;;;;;5.85;5.05;;;;;;;22.05;49.34;93243.41;5011804;28;20049;-88
2022/06/07 04:15:52;;;;;;;8.23;5.10;;;;;;;22.04;49.39;93247.44;4995629;28;20057;-87
2022/06/07 04:18:18;;;;;;;8.20;5.10;;;;;;;22.06;49.11;93239.38;5025661;28;20037;-87
2022/06/07 04:20:44;;;;;;;11.60;5.13;;;;;;;22.00;48.96;93232.50;4992578;28;20042;-89
2022/06/07 04:23:17;;;;;;;6.50;4.32;;;;;;;21.97;48.96;93239.81;5011634;28;20044;-87
2022/06/07 04:25:43;;;;;;;15.50;6.45;;;;;;;21.91;48.84;93239.22;5011953;28;20034;-87
2022/06/07 04:28:08;;;;;;;25.38;13.82;;;;;;;21.97;48.99;93244.59;5008671;28;20048;-88
2022/06/07 04:30:34;;;;;;;76.47;51.67;;;;;;;21.92;49.19;93248.19;4990959;28;20033;-86
2022/06/07 04:32:59;;;;;;;18.95;11.05;;;;;;;22.03;49.06;93245.94;5005827;28;20113;-87
2022/06/07 04:35:25;;;;;;;124.22;111.50;;;;;;;22.00;49.43;93240.75;4998840;28;20045;-87
2022/06/07 04:37:53;;;;;;;33.55;19.83;;;;;;;21.95;48.93;93250.63;5004697;28;20547;-86
2022/06/07 04:40:18;;;;;;;95.32;65.15;;;;;;;21.96;49.26;93257.59;4996162;28;20046;-89
2022/06/07 04:42:43;;;;;;;34.20;20.42;;;;;;;21.98;49.58;93259.81;5022447;28;20060;-90
2022/06/07 04:45:11;;;;;;;13.73;7.78;;;;;;;21.96;49.87;93257.59;4994661;28;20817;-92
2022/06/07 04:47:37;;;;;;;26.63;7.93;;;;;;;21.95;49.74;93253.38;4999832;28;20036;-89
2022/06/07 04:50:04;;;;;;;16.90;7.43;;;;;;;21.96;49.45;93260.34;5008764;28;20057;-89
2022/06/07 04:52:29;;;;;;;11.57;7.50;;;;;;;21.89;49.90;93256.25;4994484;28;20030;-87
2022/06/07 04:54:55;;;;;;;30.60;7.93;;;;;;;21.84;50.05;93251.66;5010386;28;20112;-89
2022/06/07 04:57:21;;;;;;;28.58;7.10;;;;;;;21.87;50.53;93256.06;5009953;28;20064;-89
2022/06/07 04:59:46;;;;;;;62.08;12.85;;;;;;;21.87;50.72;93255.31;5016467;28;20062;-92
2022/06/07 05:02:12;;;;;;;114.93;24.83;;;;;;;21.79;51.59;93252.50;5010549;28;20044;-92
2022/06/07 05:04:37;;;;;;;110.45;23.35;;;;;;;21.80;51.71;93265.00;5010447;28;20137;-89
2022/06/07 05:07:03;;;;;;;83.53;15.80;;;;;;;21.79;52.13;93263.53;5009254;28;20041;-90
2022/06/07 05:09:29;;;;;;;74.03;13.75;;;;;;;21.72;52.73;93275.19;5004177;28;20064;-90
2022/06/07 05:11:54;;;;;;;77.85;16.27;;;;;;;21.79;53.00;93260.03;4989239;28;20079;-88
2022/06/07 05:14:20;;;;;;;57.60;14.95;;;;;;;21.72;52.86;93261.44;4999918;28;20041;-92
2022/06/07 05:16:45;;;;;;;102.78;18.45;;;;;;;21.75;53.35;93273.38;4985872;28;20227;-88
2022/06/07 05:19:11;;;;;;;333.60;38.22;;;;;;;21.75;53.28;93270.63;5004431;28;20040;-90
2022/06/07 05:21:37;;;;;;;131.35;19.17;;;;;;;21.73;53.24;93265.66;5005242;28;20029;-89
2022/06/07 05:24:04;;;;;;;160.43;27.92;;;;;;;21.76;53.41;93259.09;4986877;28;20034;-90
2022/06/07 05:26:40;;;;;;;100.40;28.27;;;;;;;21.71;53.72;93259.94;5000049;28;20042;-92
2022/06/07 05:29:06;;;;;;;105.22;28.77;;;;;;;21.70;54.03;93263.97;4986270;28;20137;-91
2022/06/07 05:31:31;;;;;;;81.65;22.92;;;;;;;21.73;53.87;93262.16;5009529;28;20517;-87
2022/06/07 05:33:57;;;;;;;66.95;21.58;;;;;;;21.76;54.06;93261.09;5005383;28;20121;-91
2022/06/07 05:36:22;;;;;;;38.50;14.23;;;;;;;21.66;54.35;93271.06;5009104;28;20045;-87
2022/06/07 05:38:48;;;;;;;49.10;13.93;;;;;;;21.67;54.08;93276.03;4999708;28;20053;-89
2022/06/07 05:41:21;;;;;;;33.47;11.45;;;;;;;21.66;54.74;93271.06;5019381;28;20581;-90
2022/06/07 05:43:46;;;;;;;34.42;11.63;;;;;;;21.65;54.82;93278.59;5002559;28;20037;-90
2022/06/07 05:46:12;;;;;;;21.63;9.95;;;;;;;21.71;54.82;93276.47;5007970;28;20041;-90
2022/06/07 05:48:37;;;;;;;22.50;9.82;;;;;;;21.67;55.14;93270.53;5011029;28;20091;-89
2022/06/07 05:51:03;;;;;;;30.45;18.80;;;;;;;21.66;55.54;93273.81;5003843;28;20038;-89
2022/06/07 05:53:28;;;;;;;72.72;36.83;;;;;;;21.62;55.69;93267.94;4991683;28;20045;-88
2022/06/07 05:56:03;;;;;;;68.30;37.15;;;;;;;21.66;55.27;93271.81;4993608;28;20030;-89
2022/06/07 05:58:28;;;;;;;50.15;27.38;;;;;;;21.59;55.68;93269.75;5020258;28;20045;-89
2022/06/07 06:00:54;;;;;;;60.28;28.15;;;;;;;21.65;55.76;93269.63;4990838;28;20068;-90
2022/06/07 06:03:19;;;;;;;42.60;18.10;;;;;;;21.60;56.19;93267.72;5022402;28;20037;-90
2022/06/07 06:05:46;;;;;;;56.33;16.50;;;;;;;21.59;56.87;93275.25;5017177;28;20037;-87
2022/06/07 06:11:07;;;;;;;42.40;27.75;;;;;;;21.69;56.62;93273.50;5016199;28;20091;-89
2022/06/07 06:13:32;;;;;;;50.15;27.58;;;;;;;21.77;56.48;93270.81;5030572;28;20068;-87
2022/06/07 06:16:09;;;;;;;66.72;41.60;;;;;;;21.85;55.77;93271.66;5018025;28;20038;-89
2022/06/07 06:18:36;;;;;;;152.70;103.63;;;;;;;21.95;56.00;93272.63;5007969;28;20581;-88
2022/06/07 06:21:02;;;;;;;112.05;69.25;;;;;;;22.02;55.35;93269.25;5000576;28;21977;-87
2022/06/07 06:23:27;;;;;;;92.22;43.50;;;;;;;22.11;55.27;93274.25;5006159;28;20543;-90
2022/06/07 06:25:52;;;;;;;103.30;44.63;;;;;;;22.11;55.02;93266.00;5001598;28;20901;-88
2022/06/07 06:28:19;;;;;;;81.72;39.65;;;;;;;22.02;54.97;93269.25;5016128;28;20091;-91
2022/06/07 06:30:44;;;;;;;78.53;44.75;;;;;;;22.06;54.76;93274.41;5024392;28;20128;-89
2022/06/07 06:33:12;;;;;;;123.72;48.42;;;;;;;22.07;54.58;93273.16;5004894;28;20488;-90
2022/06/07 06:35:38;;;;;;;93.13;48.13;;;;;;;22.02;54.20;93272.00;4998282;28;20047;-90
2022/06/07 06:38:04;;;;;;;96.95;49.60;;;;;;;22.00;54.45;93271.03;5009973;28;20050;-91
2022/06/07 06:40:30;;;;;;;168.20;49.25;;;;;;;22.00;54.64;93271.03;4990066;28;20073;-92
2022/06/07 06:42:55;;;;;;;141.13;53.30;;;;;;;21.96;54.44;93265.84;5010398;28;20045;-90
2022/06/07 06:45:25;;;;;;;118.50;47.40;;;;;;;22.04;54.24;93269.44;5000013;28;20055;-90
2022/06/07 06:47:58;;;;;;;120.63;49.93;;;;;;;22.03;54.29;93267.97;5003426;28;20041;-90
2022/06/07 06:50:24;;;;;;;135.38;49.92;;;;;;;22.03;54.19;93270.72;4981774;28;20042;-90
2022/06/07 06:52:49;;;;;;;118.40;49.33;;;;;;;22.07;54.20;93267.63;5014701;28;20637;-91
2022/06/07 06:55:15;;;;;;;165.90;57.22;;;;;;;22.10;54.16;93259.03;5001683;28;20049;-92
2022/06/07 06:57:44;;;;;;;188.10;65.32;;;;;;;22.05;54.17;93270.19;5001975;28;20033;-92
2022/06/07 07:00:31;;;;;;;156.57;55.83;;;;;;;22.09;53.88;93270.56;5002558;28;20048;-93
2022/06/07 07:02:57;;;;;;;156.63;55.35;;;;;;;22.05;54.10;93270.94;5024936;28;20358;-93
2022/06/07 07:05:23;;;;;;;145.80;54.80;;;;;;;22.08;53.89;93271.88;5003219;28;20049;-92
2022/06/07 07:07:49;;;;;;;132.80;47.55;;;;;;;22.07;54.09;93271.13;5000211;28;20049;-93
2022/06/07 07:10:15;;;;;;;130.57;49.85;;;;;;;22.02;54.24;93268.50;4999720;28;20105;-93
2022/06/07 07:12:41;;;;;;;120.68;44.70;;;;;;;22.06;54.06;93275.16;4972539;28;20038;-91
2022/06/07 07:15:13;;;;;;;100.97;42.40;;;;;;;22.04;54.38;93283.22;5000345;28;20054;-92
2022/06/07 07:17:39;;;;;;;110.82;42.90;;;;;;;22.08;53.91;93280.13;4963306;28;20050;-92
2022/06/07 07:20:05;;;;;;;116.50;42.25;;;;;;;22.06;54.08;93279.94;4978084;28;20042;-92
2022/06/07 07:22:30;;;;;;;129.95;44.60;;;;;;;22.13;53.94;93277.22;4963277;28;20056;-91
2022/06/07 07:24:56;;;;;;;163.88;46.38;;;;;;;22.13;54.54;93279.97;4959316;28;20034;-90
2022/06/07 07:27:23;;;;;;;145.02;45.97;;;;;;;22.15;54.28;93282.94;4974233;28;20046;-91
2022/06/07 07:29:50;;;;;;;135.60;49.83;;;;;;;22.08;54.27;93280.88;4951509;28;20175;-91
2022/06/07 07:32:16;;;;;;;152.65;56.75;;;;;;;22.14;54.13;93275.94;4958082;28;20041;-91
2022/06/07 07:34:43;;;;;;;195.73;76.65;;;;;;;22.16;53.99;93281.66;4969938;28;20374;-91
2022/06/07 07:37:11;;;;;;;197.60;77.97;;;;;;;22.11;54.25;93279.03;4991890;28;20120;-92
2022/06/07 07:39:38;;;;;;;179.70;66.05;;;;;;;22.14;53.78;93272.44;4994316;28;20049;-89
2022/06/07 07:42:04;;;;;;;148.90;56.53;;;;;;;22.15;54.01;93276.69;5014626;28;20081;-90
2022/06/07 07:44:30;;;;;;;124.18;49.55;;;;;;;22.14;53.79;93266.94;5017234;28;20053;-90
2022/06/07 07:47:17;;;;;;;134.05;46.78;;;;;;;22.13;53.85;93262.72;4987927;28;20037;-93
2022/06/07 07:49:42;;;;;;;140.50;51.70;;;;;;;22.16;53.94;93278.16;5023215;28;20111;-90
2022/06/07 07:52:09;;;;;;;138.55;52.03;;;;;;;22.12;53.93;93277.75;5017851;28;20038;-91
2022/06/07 07:54:34;;;;;;;127.38;50.33;;;;;;;22.11;53.86;93268.00;5011999;28;20042;-91
2022/06/07 07:57:03;;;;;;;127.95;49.33;;;;;;;22.17;53.91;93271.38;5011022;28;20510;-92
2022/06/07 07:59:29;;;;;;;103.20;48.13;;;;;;;22.17;53.78;93257.59;4983999;28;20068;-89
2022/06/07 08:01:54;;;;;;;121.50;46.92;;;;;;;22.13;53.96;93259.97;5014565;28;20069;-92
2022/06/07 08:04:20;;;;;;;108.90;48.33;;;;;;;22.15;53.80;93254.66;4996864;28;20038;-93
2022/06/07 08:06:48;;;;;;;127.97;52.25;;;;;;;22.19;53.62;93260.56;5001992;28;20042;-92
2022/06/07 08:09:13;;;;;;;142.05;51.80;;;;;;;22.14;53.99;93269.69;4995419;28;20045;-90
2022/06/07 08:11:40;;;;;;;142.35;50.03;;;;;;;22.15;53.84;93273.94;5016419;28;20079;-91
2022/06/07 08:14:06;;;;;;;137.35;49.95;;;;;;;22.14;54.39;93280.72;4997596;28;20092;-92
2022/06/07 08:16:32;;;;;;;166.20;51.00;;;;;;;22.21;53.88;93286.28;5030713;28;20033;-91
2022/06/07 08:18:58;;;;;;;135.50;44.58;;;;;;;22.24;53.58;93281.72;4998082;28;20092;-90
2022/06/07 08:21:26;;;;;;;145.40;49.85;;;;;;;22.20;53.84;93279.31;5007982;28;20041;-91
2022/06/07 08:23:53;;;;;;;175.10;54.78;;;;;;;22.20;53.82;93279.31;4996636;28;20049;-88
2022/06/07 08:26:18;;;;;;;158.77;54.72;;;;;;;22.21;53.75;93274.53;5012133;28;20128;-90
2022/06/07 08:28:44;;;;;;;159.32;52.17;;;;;;;22.21;53.46;93280.03;4973128;28;20494;-88
2022/06/07 08:31:14;;;;;;;148.55;52.97;;;;;;;22.19;54.02;93274.34;4953536;28;20039;-89
2022/06/07 08:39:08;;;;;;;147.70;72.22;;;;;;;21.69;57.13;93281.75;4983601;28;20045;-90
2022/06/07 08:41:54;;;;;;;102.13;50.42;;;;;;;21.60;57.68;93278.75;4934996;28;20046;-89
2022/06/07 08:44:26;;;;;;;90.90;30.05;;;;;;;21.50;57.79;93273.69;4949673;28;20042;-87
2022/06/07 08:46:56;;;;;;;54.33;19.85;;;;;;;21.40;58.34;93274.69;4966756;28;20046;-90
2022/06/07 08:49:21;;;;;;;49.38;20.40;;;;;;;21.28;58.74;93260.44;4957537;28;22861;-86
2022/06/07 08:51:57;;;;;;;60.17;26.88;;;;;;;21.07;58.83;93248.63;4934636;28;20485;-89
2022/06/07 08:54:26;;;;;;;47.08;21.83;;;;;;;20.83;60.28;93269.56;4944276;28;20054;-87
2022/06/07 08:56:52;;;;;;;59.08;28.27;;;;;;;20.80;60.69;93278.88;4941822;28;20128;-89
2022/06/07 08:59:19;;;;;;;47.05;24.15;;;;;;;20.82;61.21;93270.09;4967830;28;20053;-85
2022/06/07 09:01:59;;;;;;;42.00;18.15;;;;;;;20.82;60.27;93261.88;5002896;28;20866;-90
2022/06/07 09:04:29;;;;;;;78.97;18.98;;;;;;;20.82;60.65;93275.59;4999844;28;20044;-87
2022/06/07 09:07:05;;;;;;;54.13;14.50;;;;;;;20.86;60.62;93268.53;4990057;28;20042;-85
2022/06/07 09:12:27;;;;;;;19.60;8.63;;;;;;;20.74;61.26;93261.78;5009190;28;20599;-88
2022/06/07 09:15:00;;;;;;;57.10;11.57;;;;;;;20.63;61.35;93261.97;5030264;28;20459;-87
2022/06/07 09:17:33;;;;;;;43.45;13.90;;;;;;;20.63;61.75;93266.75;4993005;28;20759;-88
2022/06/07 09:19:59;;;;;;;67.78;13.02;;;;;;;20.58;61.94;93262.81;5009665;28;20052;-86
2022/06/07 09:22:37;;;;;;;40.92;12.25;;;;;;;20.62;61.62;93276.25;5005741;28;20120;-86
2022/06/07 09:25:04;;;;;;;40.83;11.27;;;;;;;20.56;62.04;93270.13;5012292;28;20053;-86
2022/06/07 09:27:32;;;;;;;19.25;7.13;;;;;;;20.50;62.44;93273.72;5035265;28;20040;-87
2022/06/07 09:30:02;;;;;;;46.28;12.65;;;;;;;20.47;62.17;93274.78;5014981;28;20389;-89
2022/06/07 09:32:32;;;;;;;34.20;10.57;;;;;;;20.57;61.95;93274.38;5001886;28;20094;-86
2022/06/07 09:35:03;;;;;;;28.47;11.90;;;;;;;20.55;61.70;93269.41;5014673;28;20499;-92
2022/06/07 09:37:34;;;;;;;29.92;12.38;;;;;;;20.58;61.67;93270.31;5035368;28;20266;-88
2022/06/07 09:40:18;;;;;;;18.42;7.70;;;;;;;20.57;61.52;93257.88;5035270;28;20064;-90
2022/06/07 09:42:48;;;;;;;38.65;19.45;;;;;;;20.66;61.12;93252.69;5032887;28;20024;-89
2022/06/07 09:45:14;;;;;;;25.65;11.27;;;;;;;20.70;61.41;93257.88;5039110;28;20101;-89
2022/06/07 09:47:39;;;;;;;51.67;14.85;;;;;;;20.68;61.61;93263.16;5062117;28;20132;-86
2022/06/07 09:50:19;;;;;;;51.42;14.70;;;;;;;20.63;61.62;93259.25;5033208;28;20032;-91
2022/06/07 09:52:56;;;;;;;43.30;9.38;;;;;;;20.62;61.85;93255.00;5031744;28;20863;-88
2022/06/07 09:55:30;;;;;;;38.60;12.85;;;;;;;20.63;61.61;93255.75;5015796;28;20036;-88
2022/06/07 09:58:18;;;;;;;35.05;12.63;;;;;;;20.59;61.43;93269.06;5029838;28;20044;-91
2022/06/07 10:00:54;;;;;;;34.33;18.17;;;;;;;20.55;61.89;93263.16;5036169;28;20041;-90
2022/06/07 10:03:48;;;;;;;20.67;8.05;;;;;;;20.56;61.77;93272.88;5047381;28;20509;-91
2022/06/07 10:06:18;;;;;;;31.88;8.70;;;;;;;20.55;61.73;93261.16;5027687;28;20127;-90
2022/06/07 10:08:45;;;;;;;19.58;6.63;;;;;;;20.57;62.50;93266.13;5022060;28;20523;-91
2022/06/07 10:11:15;;;;;;;10.98;5.47;;;;;;;20.48;61.91;93265.28;5047094;28;20067;-91
2022/06/07 10:13:58;;;;;;;24.20;13.10;;;;;;;20.55;61.74;93255.66;5041224;28;20040;-91
2022/06/07 10:16:35;;;;;;;189.07;164.68;;;;;;;20.73;61.22;93256.81;5029516;28;20063;-91
2022/06/07 10:19:24;;;;;;;98.40;63.00;;;;;;;20.86;61.10;93256.78;5036195;28;20325;-91
2022/06/07 10:21:59;;;;;;;60.40;43.17;;;;;;;21.02;60.28;93261.19;5060305;28;20699;-92
2022/06/07 10:24:52;;;;;;;280.15;236.93;;;;;;;21.07;60.62;93270.59;5044327;28;20419;-90
2022/06/07 10:27:37;;;;;;;64.03;44.22;;;;;;;21.16;59.69;93256.44;5048520;28;21208;-90
2022/06/07 10:30:32;;;;;;;44.40;27.13;;;;;;;21.24;59.64;93251.03;5022931;28;20506;-88
2022/06/07 10:33:06;;;;;;;33.90;17.42;;;;;;;21.27;59.26;93255.47;5037064;28;20042;-89
2022/06/07 10:36:05;;;;;;;44.70;17.15;;;;;;;21.32;59.14;93249.09;5042861;28;20024;-89
2022/06/07 10:38:40;;;;;;;36.38;17.45;;;;;;;21.37;58.58;93240.75;5036171;28;20041;-88
2022/06/07 10:41:24;;;;;;;37.15;17.38;;;;;;;21.41;58.64;93232.16;5023850;28;20099;-89
2022/06/07 10:43:59;;;;;;;34.42;18.30;;;;;;;21.42;58.61;93234.38;4990374;28;20368;-88
2022/06/07 10:46:27;;;;;;;42.35;22.23;;;;;;;21.44;58.99;93231.06;4995681;28;20125;-89
2022/06/07 10:49:09;;;;;;;72.13;36.58;;;;;;;21.45;58.84;93232.53;4992141;28;20041;-90
2022/06/07 10:54:29;;;;;;;55.63;22.63;;;;;;;21.51;58.51;93219.41;5003772;28;20071;-90
2022/06/07 10:57:03;;;;;;;57.25;25.65;;;;;;;21.56;58.24;93232.31;4990787;28;20659;-89
2022/06/07 10:59:30;;;;;;;69.32;24.77;;;;;;;21.51;58.23;93233.16;4992813;28;20045;-89
2022/06/07 11:02:01;;;;;;;66.65;26.48;;;;;;;21.60;58.58;93235.47;5015185;28;20049;-88
2022/06/07 11:10:12;;;;;;;135.35;35.65;;;;;;;21.62;58.07;93232.91;5038661;28;20121;-90
2022/06/07 11:12:50;;;;;;;80.88;30.05;;;;;;;21.61;58.03;93236.94;5025034;28;20048;-89
2022/06/07 11:15:20;;;;;;;96.68;33.15;;;;;;;21.63;58.03;93233.66;5013142;28;20033;-90
2022/06/07 11:18:00;;;;;;;84.50;31.55;;;;;;;21.63;57.97;93226.16;5034379;28;20045;-92
2022/06/07 11:20:31;;;;;;;135.00;42.53;;;;;;;21.66;57.68;93227.06;5026259;28;20049;-92
2022/06/07 11:23:01;;;;;;;77.47;33.50;;;;;;;21.63;57.68;93228.91;5015314;28;20063;-90
2022/06/07 11:25:27;;;;;;;350.88;190.45;;;;;;;21.68;57.47;93222.50;5057395;28;21153;-90
2022/06/07 11:27:56;;;;;;;231.05;73.70;;;;;;;21.70;57.40;93219.22;5053514;28;20507;-90
2022/06/07 11:30:37;;;;;;;144.05;57.53;;;;;;;21.71;57.58;93212.44;5020902;28;20055;-92
2022/06/07 11:33:32;;;;;;;120.28;44.47;;;;;;;21.69;57.58;93214.97;5046010;28;20136;-92
2022/06/07 11:36:13;;;;;;;122.07;48.03;;;;;;;21.72;57.31;93211.16;5007800;28;20080;-92
2022/06/07 11:38:54;;;;;;;95.35;48.33;;;;;;;21.76;57.53;93200.56;5020373;28;20038;-91
2022/06/07 11:41:37;;;;;;;80.07;32.50;;;;;;;21.70;57.33;93191.69;5023606;28;20097;-91
2022/06/07 11:44:11;;;;;;;75.93;36.72;;;;;;;21.70;57.59;93192.44;5015957;28;20060;-93
2022/06/07 11:46:57;;;;;;;89.70;46.78;;;;;;;21.74;57.39;93192.84;5014113;28;20064;-93
2022/06/07 11:49:24;;;;;;;142.38;71.72;;;;;;;21.77;57.48;93196.53;5005761;28;20041;-92
2022/06/07 11:51:54;;;;;;;113.60;61.22;;;;;;;21.75;57.31;93194.31;5027657;28;20075;-93
2022/06/07 11:54:45;;;;;;;93.72;48.90;;;;;;;21.71;57.50;93193.19;4999138;28;20038;-93
2022/06/07 11:57:40;;;;;;;86.75;45.80;;;;;;;21.72;57.56;93203.66;4958839;28;20045;-94